Time;durP1;ratioP1;P1;durP2;ratioP2;P2;SDS_P1;SDS_P2;PMS_P1;PMS_P2;Temp;Humidity;BMP_temperature;BMP_pressure;BME280_temperature;BME280_humidity;BME280_pressure;Samples;Min_cycle;Max_cycle;Signal;HPM_P1;HPM_P2
2021/12/12 00:01:26;;;;;;;17.13;8.15;;;11.30;67.10;;;;;;4776711;29;20486;-80
2021/12/12 00:04:10;;;;;;;17.08;7.68;;;11.30;67.20;;;;;;4792091;29;20142;-82
2021/12/12 00:06:38;;;;;;;13.50;7.38;;;11.30;67.30;;;;;;4808217;29;20101;-80
2021/12/12 00:09:18;;;;;;;10.85;7.57;;;11.30;67.20;;;;;;4777021;29;20070;-81
2021/12/12 00:11:44;;;;;;;15.40;7.85;;;11.30;67.10;;;;;;4776848;29;20054;-81
2021/12/12 00:14:27;;;;;;;12.98;7.53;;;11.30;67.10;;;;;;4791851;29;20361;-80
2021/12/12 00:16:54;;;;;;;13.93;7.20;;;11.30;67.00;;;;;;4795668;29;20061;-81
2021/12/12 00:19:23;;;;;;;10.18;7.60;;;11.30;67.00;;;;;;4810157;29;20061;-81
2021/12/12 00:21:55;;;;;;;13.10;7.63;;;11.20;66.80;;;;;;4795031;29;20122;-79
2021/12/12 00:24:21;;;;;;;12.90;7.68;;;11.20;67.10;;;;;;4780314;29;20043;-82
2021/12/12 00:26:50;;;;;;;15.43;8.02;;;11.20;67.10;;;;;;4780120;29;20379;-82
2021/12/12 00:29:17;;;;;;;15.02;7.88;;;11.30;67.00;;;;;;4795107;29;20459;-80
2021/12/12 00:31:45;;;;;;;13.32;7.90;;;11.30;66.90;;;;;;4809757;29;20080;-82
2021/12/12 00:34:11;;;;;;;14.57;7.70;;;11.20;67.10;;;;;;4794930;29;20058;-82
2021/12/12 00:36:40;;;;;;;11.90;7.75;;;11.20;66.90;;;;;;4779908;29;20057;-80
2021/12/12 00:39:14;;;;;;;13.73;7.70;;;11.20;66.90;;;;;;4780083;29;20055;-82
2021/12/12 00:41:50;;;;;;;13.75;7.32;;;11.20;67.00;;;;;;4794991;29;20042;-81
2021/12/12 00:44:17;;;;;;;14.57;7.90;;;11.20;67.10;;;;;;4794561;29;20055;-82
2021/12/12 00:46:44;;;;;;;14.35;7.93;;;11.10;67.20;;;;;;4780052;29;20038;-81
2021/12/12 00:49:10;;;;;;;15.98;8.52;;;11.10;67.30;;;;;;4779979;29;20364;-80
2021/12/12 00:51:39;;;;;;;12.88;7.50;;;11.20;67.40;;;;;;4809749;29;20065;-81
2021/12/12 00:54:06;;;;;;;14.55;8.23;;;11.20;67.40;;;;;;4809613;29;20051;-80
2021/12/12 00:56:31;;;;;;;14.18;8.70;;;11.00;67.30;;;;;;4794941;29;20059;-80
2021/12/12 00:58:58;;;;;;;13.15;8.38;;;11.00;67.70;;;;;;4810132;29;20080;-81
2021/12/12 01:01:28;;;;;;;15.77;8.88;;;11.00;67.60;;;;;;4794450;29;20061;-82
2021/12/12 01:04:00;;;;;;;13.57;8.63;;;11.00;67.90;;;;;;4779866;29;20051;-81
2021/12/12 01:06:28;;;;;;;15.57;8.40;;;11.00;67.80;;;;;;4794630;29;20063;-81
2021/12/12 01:08:58;;;;;;;15.18;9.65;;;11.00;67.80;;;;;;4810539;29;20344;-80
2021/12/12 01:11:34;;;;;;;16.42;8.38;;;11.10;67.80;;;;;;4794622;29;20471;-81
2021/12/12 01:14:01;;;;;;;19.90;10.30;;;11.00;67.80;;;;;;4809231;29;20084;-82
2021/12/12 01:16:37;;;;;;;13.55;8.40;;;11.10;67.90;;;;;;4794546;29;20088;-81
2021/12/12 01:19:12;;;;;;;15.40;8.80;;;11.00;67.80;;;;;;4779777;29;20061;-83
2021/12/12 01:21:44;;;;;;;17.80;8.95;;;11.00;67.90;;;;;;4810240;29;20090;-80
2021/12/12 01:24:15;;;;;;;15.80;9.02;;;11.10;67.90;;;;;;4779224;29;20115;-82
2021/12/12 01:26:42;;;;;;;15.82;8.45;;;11.00;67.90;;;;;;4793468;29;20058;-81
2021/12/12 01:29:08;;;;;;;13.90;8.90;;;11.00;67.90;;;;;;4809870;29;20053;-81
2021/12/12 01:31:39;;;;;;;13.75;8.63;;;11.00;68.00;;;;;;4778676;29;20042;-80
2021/12/12 01:34:12;;;;;;;12.70;8.10;;;11.00;68.10;;;;;;4793807;29;20057;-83
2021/12/12 01:37:09;;;;;;;15.25;8.90;;;11.00;68.20;;;;;;4793725;29;20050;-81
2021/12/12 01:39:45;;;;;;;18.02;9.45;;;11.00;68.30;;;;;;4793737;29;20164;-82
2021/12/12 01:42:24;;;;;;;11.50;7.38;;;11.00;68.40;;;;;;4793700;29;20046;-80
2021/12/12 01:45:17;;;;;;;16.67;8.82;;;11.00;68.50;;;;;;4793742;29;20183;-80
2021/12/12 01:47:54;;;;;;;17.20;9.27;;;11.00;68.30;;;;;;4794344;29;20043;-84
2021/12/12 01:50:31;;;;;;;14.68;8.88;;;11.00;68.40;;;;;;4793809;29;20051;-81
2021/12/12 01:53:00;;;;;;;16.38;9.27;;;10.90;68.50;;;;;;4793779;29;20038;-81
2021/12/12 01:55:31;;;;;;;15.77;9.15;;;10.90;68.50;;;;;;4808841;29;20482;-83
2021/12/12 01:58:02;;;;;;;17.27;9.65;;;10.90;68.40;;;;;;4778839;29;20103;-81
2021/12/12 02:00:34;;;;;;;13.68;8.02;;;10.90;68.50;;;;;;4778769;29;20107;-83
2021/12/12 02:03:02;;;;;;;15.60;8.98;;;10.90;68.70;;;;;;4794119;29;20039;-82
2021/12/12 02:05:29;;;;;;;15.65;9.40;;;10.90;68.80;;;;;;4808470;29;20051;-80
2021/12/12 02:08:00;;;;;;;15.38;9.48;;;10.80;69.00;;;;;;4778468;29;20104;-81
2021/12/12 02:10:34;;;;;;;15.10;8.32;;;10.80;69.10;;;;;;4778356;29;20074;-81
2021/12/12 02:13:10;;;;;;;14.35;8.15;;;10.80;69.20;;;;;;4808906;29;20058;-81
2021/12/12 02:15:38;;;;;;;16.77;8.57;;;10.80;69.30;;;;;;4778167;29;20043;-80
2021/12/12 02:18:09;;;;;;;15.10;8.32;;;10.80;69.30;;;;;;4793238;29;20047;-80
2021/12/12 02:20:42;;;;;;;15.02;8.23;;;10.80;70.10;;;;;;4778266;29;20046;-81
2021/12/12 02:23:19;;;;;;;14.57;7.85;;;10.80;69.50;;;;;;4793335;29;20490;-79
2021/12/12 02:36:52;;;;;;;15.63;7.32;;;10.80;69.80;;;;;;4808436;29;20051;-82
2021/12/12 02:39:18;;;;;;;13.32;7.65;;;10.80;69.90;;;;;;4792075;29;20069;-82
2021/12/12 02:41:50;;;;;;;13.50;7.40;;;10.80;69.90;;;;;;4792435;29;20092;-80
2021/12/12 02:44:21;;;;;;;14.38;7.05;;;10.80;69.90;;;;;;4808503;29;20050;-82
2021/12/12 02:46:49;;;;;;;13.98;7.22;;;10.80;70.10;;;;;;4793612;29;20367;-83
2021/12/12 02:49:38;;;;;;;13.13;6.95;;;10.70;70.10;;;;;;4792987;29;20043;-82
2021/12/12 02:52:08;;;;;;;11.65;6.32;;;10.70;70.10;;;;;;4777801;29;20047;-81
2021/12/12 02:54:34;;;;;;;11.57;6.55;;;10.70;70.30;;;;;;4793405;29;20133;-83
2021/12/12 02:57:00;;;;;;;14.38;7.25;;;10.70;70.40;;;;;;4793217;29;20546;-81
2021/12/12 02:59:26;;;;;;;10.55;6.55;;;10.70;70.50;;;;;;4793135;29;20054;-80
2021/12/12 03:01:57;;;;;;;10.25;6.70;;;10.70;70.50;;;;;;4792431;29;20067;-81
2021/12/12 03:04:24;;;;;;;10.90;6.45;;;10.60;70.60;;;;;;4792741;29;20055;-83
2021/12/12 03:06:50;;;;;;;12.63;6.78;;;10.70;70.70;;;;;;4807353;29;20097;-81
2021/12/12 03:09:22;;;;;;;10.07;6.47;;;10.70;70.70;;;;;;4777992;29;20055;-81
2021/12/12 03:11:52;;;;;;;9.38;6.15;;;10.70;70.70;;;;;;4777821;29;20141;-81
2021/12/12 03:14:18;;;;;;;9.98;5.90;;;10.70;70.70;;;;;;4777922;29;20105;-81
2021/12/12 03:16:44;;;;;;;10.10;6.07;;;10.70;70.70;;;;;;4807579;29;20062;-83
2021/12/12 03:19:10;;;;;;;10.02;6.03;;;10.70;70.90;;;;;;4777525;29;20070;-80
2021/12/12 03:21:42;;;;;;;11.50;6.18;;;10.60;70.90;;;;;;4792323;29;20454;-82
2021/12/12 03:24:19;;;;;;;11.88;6.22;;;10.60;71.00;;;;;;4777617;29;20050;-81
2021/12/12 03:26:47;;;;;;;7.68;5.47;;;10.60;71.20;;;;;;4777329;29;20096;-81
2021/12/12 03:29:14;;;;;;;9.23;5.90;;;10.60;71.20;;;;;;4808366;29;20496;-81
2021/12/12 03:31:44;;;;;;;10.85;5.80;;;10.60;71.10;;;;;;4791964;29;20097;-81
2021/12/12 03:34:14;;;;;;;7.75;5.50;;;10.60;71.20;;;;;;4792814;29;20059;-81
2021/12/12 03:36:40;;;;;;;10.27;5.30;;;10.60;71.40;;;;;;4792657;29;20051;-82
2021/12/12 03:39:15;;;;;;;9.98;5.60;;;10.50;71.60;;;;;;4792269;29;20054;-83
2021/12/12 03:41:41;;;;;;;7.45;4.80;;;10.60;71.70;;;;;;4777021;29;20142;-81
2021/12/12 03:44:12;;;;;;;7.43;4.72;;;10.60;71.60;;;;;;4777177;29;20149;-81
2021/12/12 03:46:39;;;;;;;9.55;5.45;;;10.60;71.60;;;;;;4807371;29;20459;-81
2021/12/12 03:49:06;;;;;;;9.38;5.50;;;10.60;71.70;;;;;;4807541;29;20374;-83
2021/12/12 03:51:34;;;;;;;9.90;5.25;;;10.50;71.70;;;;;;4777304;29;20051;-83
2021/12/12 03:54:01;;;;;;;9.20;5.70;;;10.50;71.80;;;;;;4791857;29;20141;-82
2021/12/12 03:56:27;;;;;;;8.20;5.22;;;10.50;71.90;;;;;;4806932;29;20051;-83
2021/12/12 03:58:54;;;;;;;9.98;5.15;;;10.50;71.80;;;;;;4776934;29;20065;-82
2021/12/12 04:01:33;;;;;;;6.88;4.90;;;10.50;71.90;;;;;;4777520;29;20092;-82
2021/12/12 04:04:09;;;;;;;7.95;4.60;;;10.50;71.90;;;;;;4792042;29;20050;-81
2021/12/12 04:06:35;;;;;;;8.20;4.90;;;10.50;71.90;;;;;;4791952;29;20055;-82
2021/12/12 04:09:05;;;;;;;7.32;5.20;;;10.50;72.10;;;;;;4807576;29;20363;-82
2021/12/12 04:11:39;;;;;;;6.97;5.20;;;10.50;72.20;;;;;;4791831;29;20073;-84
2021/12/12 04:14:05;;;;;;;;;;;10.50;72.40;;;;;;4777571;29;20376;-84
2021/12/12 04:16:34;;;;;;;8.25;4.80;;;10.40;72.50;;;;;;4776751;29;20259;-83
2021/12/12 04:19:00;;;;;;;6.63;4.88;;;10.40;72.50;;;;;;4792037;29;20053;-82
2021/12/12 04:21:28;;;;;;;7.10;4.80;;;10.40;72.40;;;;;;4776653;29;20476;-82
2021/12/12 04:23:54;;;;;;;5.85;4.10;;;10.50;72.40;;;;;;4791659;29;20050;-80
2021/12/12 04:26:32;;;;;;;6.70;4.35;;;10.40;72.40;;;;;;4777067;29;20063;-82
2021/12/12 04:29:02;;;;;;;6.78;4.68;;;10.40;72.40;;;;;;4777290;29;20051;-82
2021/12/12 04:31:29;;;;;;;8.27;4.47;;;10.50;72.30;;;;;;4791481;29;20047;-82
2021/12/12 04:33:56;;;;;;;7.60;4.57;;;10.50;72.30;;;;;;4791627;29;20145;-83
2021/12/12 04:36:27;;;;;;;6.18;4.20;;;10.50;72.30;;;;;;4791564;29;20046;-82
2021/12/12 04:38:59;;;;;;;8.02;4.55;;;10.50;72.20;;;;;;4776671;29;20455;-81
2021/12/12 04:41:25;;;;;;;5.07;3.95;;;10.60;72.10;;;;;;4791220;29;20086;-82
2021/12/12 04:43:50;;;;;;;7.75;4.18;;;10.60;72.00;;;;;;4791607;29;20096;-82
2021/12/12 04:46:25;;;;;;;5.93;4.07;;;10.60;72.00;;;;;;4791653;29;20125;-81
2021/12/12 04:51:57;;;;;;;4.75;3.80;;;10.70;71.90;;;;;;4805051;29;20408;-80
2021/12/12 04:54:42;;;;;;;5.75;3.88;;;10.70;72.00;;;;;;4790755;29;20051;-81
2021/12/12 04:57:18;;;;;;;5.47;3.80;;;10.60;72.10;;;;;;4788410;29;20455;-81
2021/12/12 04:59:51;;;;;;;4.95;3.67;;;10.60;72.10;;;;;;4784052;29;20043;-82
2021/12/12 05:02:24;;;;;;;4.55;3.53;;;10.60;72.20;;;;;;4800328;29;20065;-83
2021/12/12 05:04:54;;;;;;;4.32;3.80;;;10.60;72.20;;;;;;4818959;29;20082;-82
2021/12/12 05:07:47;;;;;;;6.22;3.80;;;10.60;72.20;;;;;;4803750;29;20074;-82
2021/12/12 05:10:22;;;;;;;5.50;3.97;;;10.60;72.20;;;;;;4780847;29;20054;-83
2021/12/12 05:13:14;;;;;;;5.30;3.70;;;10.70;72.10;;;;;;4798057;29;20111;-86
2021/12/12 05:15:59;;;;;;;5.90;4.05;;;10.90;71.50;;;;;;4818081;29;20103;-81
2021/12/12 05:18:35;;;;;;;5.57;4.03;;;11.20;70.90;;;;;;4817351;29;20475;-79
2021/12/12 05:21:06;;;;;;;8.98;4.68;;;11.40;70.00;;;;;;4815790;29;20344;-76
2021/12/12 05:23:33;;;;;;;5.45;4.20;;;11.60;69.70;;;;;;4818010;29;20056;-70
2021/12/12 05:26:05;;;;;;;4.85;3.83;;;11.70;69.00;;;;;;4803558;29;20379;-78
2021/12/12 05:28:34;;;;;;;5.20;4.45;;;11.80;68.40;;;;;;4819238;29;20475;-79
2021/12/12 05:31:11;;;;;;;4.80;4.20;;;11.90;68.10;;;;;;4815284;29;20123;-85
2021/12/12 05:33:39;;;;;;;5.43;3.83;;;12.00;68.10;;;;;;4816174;29;20119;-77
2021/12/12 05:36:08;;;;;;;5.43;3.88;;;12.00;68.10;;;;;;4802369;29;20054;-71
2021/12/12 05:38:38;;;;;;;8.32;4.07;;;12.00;68.20;;;;;;4815943;29;20062;-85
2021/12/12 05:41:14;;;;;;;13.80;7.25;;;12.10;68.20;;;;;;4786301;29;20038;-79
2021/12/12 05:43:40;;;;;;;5.30;3.13;;;12.30;69.20;;;;;;4817147;29;20398;-82
2021/12/12 05:46:14;;;;;;;6.45;3.08;;;12.50;68.70;;;;;;4794160;29;20061;-81
2021/12/12 05:48:41;;;;;;;15.70;4.07;;;12.80;68.00;;;;;;4792665;29;20480;-83
2021/12/12 05:51:07;;;;;;;6.95;3.38;;;12.80;67.40;;;;;;4808978;29;20061;-79
2021/12/12 05:53:32;;;;;;;12.05;3.08;;;13.00;68.00;;;;;;4808782;29;20382;-77
2021/12/12 05:55:59;;;;;;;12.02;2.88;;;13.40;67.70;;;;;;4809464;29;20223;-81
2021/12/12 05:58:25;;;;;;;13.50;2.47;;;13.60;67.20;;;;;;4809447;29;20043;-77
2021/12/12 06:00:59;;;;;;;14.02;3.40;;;14.00;66.90;;;;;;4794085;29;20055;-78
2021/12/12 06:03:29;;;;;;;9.15;2.60;;;14.20;66.60;;;;;;4793538;29;20058;-81
2021/12/12 06:05:58;;;;;;;11.85;2.35;;;14.50;66.10;;;;;;4808981;29;20055;-83
2021/12/12 06:08:26;;;;;;;15.60;2.58;;;14.60;65.90;;;;;;4778526;29;20054;-78
2021/12/12 06:10:54;;;;;;;18.98;2.72;;;14.80;65.70;;;;;;4809612;29;20134;-77
2021/12/12 06:13:21;;;;;;;15.00;2.90;;;14.90;65.60;;;;;;4809159;29;20047;-77
2021/12/12 06:15:51;;;;;;;9.43;2.10;;;15.00;65.50;;;;;;4793444;29;20055;-78
2021/12/12 06:18:22;;;;;;;13.43;2.78;;;15.00;65.40;;;;;;4793148;29;20429;-80
2021/12/12 06:20:54;;;;;;;13.25;2.35;;;15.10;65.50;;;;;;4789712;29;20066;-82
2021/12/12 06:23:22;;;;;;;9.57;2.05;;;15.10;65.50;;;;;;4796450;29;20059;-78
2021/12/12 06:25:49;;;;;;;10.30;2.17;;;15.20;65.30;;;;;;4775102;30;20142;-77
2021/12/12 06:28:20;;;;;;;10.20;2.63;;;15.30;64.90;;;;;;4793020;29;20043;-76
2021/12/12 06:30:46;;;;;;;14.93;3.13;;;15.00;64.60;;;;;;4792736;29;20528;-76
2021/12/12 06:33:13;;;;;;;9.38;2.20;;;15.10;65.40;;;;;;4792499;29;20534;-76
2021/12/12 06:35:39;;;;;;;6.75;1.98;;;15.20;65.30;;;;;;4792315;29;20079;-76
2021/12/12 06:38:09;;;;;;;10.65;2.13;;;15.30;65.00;;;;;;4809125;29;20475;-76
2021/12/12 06:40:37;;;;;;;8.50;2.83;;;15.40;64.60;;;;;;4808689;29;20046;-77
2021/12/12 06:43:08;;;;;;;7.60;1.90;;;15.50;64.30;;;;;;4808822;29;20062;-77
2021/12/12 06:45:34;;;;;;;7.78;2.50;;;15.60;64.10;;;;;;4808386;29;20050;-77
2021/12/12 06:48:03;;;;;;;12.52;2.75;;;15.70;63.90;;;;;;4809018;29;20054;-77
2021/12/12 06:50:30;;;;;;;6.03;2.10;;;15.80;63.50;;;;;;4809030;29;20055;-76
2021/12/12 06:53:00;;;;;;;8.52;2.60;;;15.90;63.20;;;;;;4813628;29;20057;-79
2021/12/12 06:55:26;;;;;;;7.90;2.15;;;16.00;63.00;;;;;;4808798;29;20059;-77
2021/12/12 06:57:52;;;;;;;6.75;2.28;;;16.10;62.90;;;;;;4792859;29;20395;-78
2021/12/12 07:00:22;;;;;;;8.88;2.30;;;16.20;62.60;;;;;;4808638;29;20058;-80
2021/12/12 07:02:49;;;;;;;4.95;1.80;;;16.20;62.40;;;;;;4792857;29;20054;-80
2021/12/12 07:05:20;;;;;;;7.53;2.10;;;16.30;62.30;;;;;;4808266;29;20094;-78
2021/12/12 07:07:47;;;;;;;6.22;2.20;;;16.40;61.90;;;;;;4808700;29;20433;-77
2021/12/12 07:10:17;;;;;;;4.70;1.98;;;16.50;61.80;;;;;;4791032;29;20050;-82
2021/12/12 07:12:44;;;;;;;7.25;2.70;;;16.50;61.60;;;;;;4792264;29;20107;-78
2021/12/12 07:15:21;;;;;;;5.90;1.88;;;16.60;61.60;;;;;;4792508;29;20062;-79
2021/12/12 07:18:04;;;;;;;7.07;1.67;;;16.60;61.80;;;;;;4791898;29;20090;-78
2021/12/12 07:20:31;;;;;;;3.30;1.52;;;16.60;61.80;;;;;;4791706;29;20046;-80
2021/12/12 07:22:58;;;;;;;11.98;2.10;;;16.60;61.70;;;;;;4808368;29;20103;-80
2021/12/12 07:25:24;;;;;;;9.05;1.92;;;16.60;61.70;;;;;;4791714;29;20402;-79
2021/12/12 07:27:51;;;;;;;11.13;2.92;;;16.60;60.50;;;;;;4806801;29;20452;-78
2021/12/12 07:30:18;;;;;;;8.85;1.70;;;16.50;61.80;;;;;;4791869;29;20062;-80
2021/12/12 07:32:45;;;;;;;10.10;1.98;;;16.50;62.10;;;;;;4807423;29;20084;-78
2021/12/12 07:35:15;;;;;;;7.63;1.83;;;16.60;62.30;;;;;;4807925;29;20047;-79
2021/12/12 07:37:42;;;;;;;10.93;1.58;;;16.60;62.40;;;;;;4808035;29;20067;-82
2021/12/12 07:40:09;;;;;;;9.68;2.17;;;16.60;62.40;;;;;;4794619;29;20126;-80
2021/12/12 07:42:35;;;;;;;7.47;1.65;;;16.60;62.40;;;;;;4808172;29;20356;-82
2021/12/12 07:45:04;;;;;;;6.70;1.20;;;16.60;62.40;;;;;;4777146;29;20137;-80
2021/12/12 07:47:30;;;;;;;10.77;2.15;;;16.70;62.30;;;;;;4806146;29;20061;-80
2021/12/12 07:49:59;;;;;;;4.90;1.67;;;16.70;62.30;;;;;;4807478;29;20066;-83
2021/12/12 07:52:27;;;;;;;11.00;1.75;;;16.80;62.20;;;;;;4807311;29;20049;-79
2021/12/12 07:54:56;;;;;;;8.48;1.52;;;16.80;62.20;;;;;;4807656;29;20119;-83
2021/12/12 07:57:32;;;;;;;7.07;1.73;;;16.80;62.10;;;;;;4776961;29;20414;-83
2021/12/12 08:00:01;;;;;;;6.43;1.55;;;16.90;62.10;;;;;;4774346;29;20053;-80
2021/12/12 08:02:27;;;;;;;7.78;1.55;;;16.90;62.00;;;;;;4788099;30;20204;-79
2021/12/12 08:04:56;;;;;;;7.60;1.75;;;16.90;61.80;;;;;;4805581;29;20043;-82
2021/12/12 08:07:40;;;;;;;6.05;1.80;;;16.90;61.80;;;;;;4791100;29;20043;-81
2021/12/12 08:10:15;;;;;;;16.27;2.10;;;16.90;61.90;;;;;;4782016;29;20054;-84
2021/12/12 08:13:35;;;;;;;7.50;1.70;;;16.90;62.00;;;;;;4791939;29;20054;-85
2021/12/12 08:16:08;;;;;;;2.55;1.38;;;16.90;62.20;;;;;;4787288;29;20042;-83
2021/12/12 08:18:37;;;;;;;4.70;1.30;;;17.00;62.20;;;;;;4803779;29;20070;-83
2021/12/12 08:21:04;;;;;;;11.73;1.92;;;17.00;62.20;;;;;;4778170;29;20147;-81
2021/12/12 08:27:33;;;;;;;6.00;2.10;;;16.90;62.40;;;;;;4732532;30;20048;-85
2021/12/12 08:30:00;;;;;;;7.82;1.67;;;16.90;62.40;;;;;;4737113;30;20052;-86
2021/12/12 08:32:31;;;;;;;5.32;1.70;;;16.90;62.20;;;;;;4725730;30;20048;-81
2021/12/12 08:34:57;;;;;;;9.13;2.10;;;16.90;62.50;;;;;;4757982;29;20042;-79
2021/12/12 08:37:27;;;;;;;5.88;2.13;;;16.90;62.90;;;;;;4792930;29;20065;-81
2021/12/12 08:40:03;;;;;;;6.53;2.60;;;16.90;62.60;;;;;;4779729;29;20088;-82
2021/12/12 08:42:29;;;;;;;6.43;3.28;;;16.90;62.60;;;;;;4810030;29;20106;-80
2021/12/12 08:44:58;;;;;;;12.48;3.92;;;16.90;62.30;;;;;;4779918;29;20367;-77
2021/12/12 08:47:25;;;;;;;10.57;3.78;;;16.80;62.20;;;;;;4794532;29;20084;-78
2021/12/12 08:49:52;;;;;;;9.52;2.88;;;16.90;61.90;;;;;;4794355;29;20043;-78
2021/12/12 08:52:24;;;;;;;9.35;2.78;;;16.90;61.70;;;;;;4793840;29;20463;-79
2021/12/12 08:55:01;;;;;;;6.53;2.65;;;16.90;61.70;;;;;;4794029;29;20487;-82
2021/12/12 08:57:39;;;;;;;7.95;2.38;;;16.90;61.70;;;;;;4809908;29;20086;-78
2021/12/12 09:00:16;;;;;;;9.65;2.42;;;16.90;61.80;;;;;;4804499;29;20043;-80
2021/12/12 09:03:19;;;;;;;5.63;2.13;;;16.90;61.80;;;;;;4810188;29;20117;-82
2021/12/12 09:05:46;;;;;;;6.03;1.92;;;16.90;61.60;;;;;;4775721;29;20047;-77
2021/12/12 09:08:23;;;;;;;5.60;2.13;;;17.00;61.70;;;;;;4779457;29;20038;-79
2021/12/12 09:11:02;;;;;;;5.43;2.35;;;17.00;61.60;;;;;;4779442;29;20047;-77
2021/12/12 09:13:38;;;;;;;5.13;1.80;;;17.00;61.60;;;;;;4810266;29;20051;-75
2021/12/12 09:16:15;;;;;;;3.22;1.75;;;17.00;61.50;;;;;;4809594;29;20486;-77
2021/12/12 09:18:52;;;;;;;6.20;1.98;;;17.00;61.60;;;;;;4809650;29;20043;-79
2021/12/12 09:21:31;;;;;;;5.38;2.42;;;17.00;61.60;;;;;;4793998;29;20226;-77
2021/12/12 09:24:10;;;;;;;5.53;2.08;;;17.00;61.90;;;;;;4809837;29;20054;-77
2021/12/12 09:26:43;;;;;;;6.88;2.40;;;17.00;61.90;;;;;;4793854;29;20047;-83
2021/12/12 09:29:25;;;;;;;7.95;2.38;;;17.00;63.30;;;;;;4809019;29;20355;-77
2021/12/12 09:32:27;;;;;;;7.75;2.67;;;17.00;62.90;;;;;;4809477;29;20062;-79
2021/12/12 09:35:11;;;;;;;6.45;3.25;;;17.00;63.40;;;;;;4788730;29;20066;-77
2021/12/12 09:37:53;;;;;;;11.20;4.32;;;17.00;63.80;;;;;;4808673;29;20383;-81
2021/12/12 09:40:42;;;;;;;3.22;1.70;;;17.00;64.70;;;;;;4792840;29;20138;-79
2021/12/12 09:43:07;;;;;;;9.38;3.83;;;16.30;61.80;;;;;;4808721;29;20463;-78
2021/12/12 09:46:03;;;;;;;7.32;2.25;;;15.90;67.60;;;;;;4809247;29;20107;-81
2021/12/12 09:51:38;;;;;;;10.38;2.85;;;16.40;66.80;;;;;;4793594;29;20055;-77
2021/12/12 09:54:24;;;;;;;7.93;3.20;;;16.50;66.60;;;;;;4809682;29;20049;-81
2021/12/12 09:57:50;;;;;;;;;;;;;;;;;;;;;
2021/12/12 10:00:32;;;;;;;7.93;2.90;;;16.70;66.30;;;;;;4792461;29;20138;-80
2021/12/12 10:03:23;;;;;;;8.40;2.60;;;16.70;66.00;;;;;;4792763;29;20161;-81
2021/12/12 10:06:02;;;;;;;8.25;2.40;;;16.80;65.90;;;;;;4793772;29;20368;-81
2021/12/12 10:08:52;;;;;;;7.65;2.38;;;16.90;65.70;;;;;;4774896;30;20050;-79
2021/12/12 10:11:25;;;;;;;8.60;2.70;;;16.90;65.60;;;;;;4794088;29;20340;-80
2021/12/12 10:14:25;;;;;;;6.32;2.38;;;16.90;65.90;;;;;;4793013;29;20050;-80
2021/12/12 10:17:18;;;;;;;8.18;2.60;;;16.90;66.50;;;;;;4808294;29;20047;-78
2021/12/12 10:19:54;;;;;;;8.13;2.90;;;16.90;66.40;;;;;;4793447;29;20062;-78
2021/12/12 10:22:45;;;;;;;5.60;3.38;;;16.90;65.90;;;;;;4808751;29;20126;-79
2021/12/12 10:25:18;;;;;;;10.20;2.58;;;16.90;65.80;;;;;;4778481;29;20447;-78
2021/12/12 10:28:01;;;;;;;6.95;2.45;;;16.90;65.60;;;;;;4777907;29;20047;-78
2021/12/12 10:30:43;;;;;;;7.18;2.35;;;16.90;65.60;;;;;;4778578;29;20043;-76
2021/12/12 10:33:39;;;;;;;11.55;2.30;;;16.90;65.80;;;;;;4777749;29;20069;-77
2021/12/12 10:36:12;;;;;;;6.65;1.90;;;16.90;65.60;;;;;;4809007;29;20412;-77
2021/12/12 10:39:05;;;;;;;7.32;2.00;;;16.90;65.70;;;;;;4797564;29;20486;-79
2021/12/12 10:41:35;;;;;;;;;;;17.00;65.70;;;;;;4790982;29;20051;-79
2021/12/12 10:44:03;;;;;;;3.63;1.73;;;17.00;65.70;;;;;;4809088;29;19921;-79
2021/12/12 10:46:54;;;;;;;8.13;1.60;;;17.00;65.90;;;;;;4792249;29;20047;-80
2021/12/12 10:49:29;;;;;;;7.95;1.52;;;17.00;66.10;;;;;;4792795;29;20108;-78
2021/12/12 10:52:10;;;;;;;4.60;1.60;;;17.00;66.10;;;;;;4791792;29;20051;-79
2021/12/12 10:54:53;;;;;;;5.25;1.48;;;17.00;66.20;;;;;;4793209;29;20047;-79
2021/12/12 10:57:27;;;;;;;6.65;1.25;;;17.00;66.20;;;;;;4777545;29;20173;-80
2021/12/12 11:00:17;;;;;;;4.97;1.40;;;17.00;66.30;;;;;;4775200;29;20046;-79
2021/12/12 11:03:09;;;;;;;7.50;1.58;;;17.00;66.30;;;;;;4792193;29;20051;-79
2021/12/12 11:05:58;;;;;;;3.80;0.85;;;17.00;66.20;;;;;;4792350;29;20042;-80
2021/12/12 11:09:12;;;;;;;5.10;1.30;;;17.00;65.90;;;;;;4791630;29;20062;-79
2021/12/12 11:11:48;;;;;;;9.27;1.60;;;17.00;65.90;;;;;;4808266;29;20057;-79
2021/12/12 11:14:24;;;;;;;4.28;1.05;;;17.00;65.90;;;;;;4792224;29;20491;-79
2021/12/12 11:16:55;;;;;;;3.88;1.08;;;16.90;65.70;;;;;;4792388;29;20438;-79
2021/12/12 11:19:58;;;;;;;5.15;1.23;;;16.70;63.80;;;;;;4774950;29;20073;-80
2021/12/12 11:22:23;;;;;;;2.30;0.70;;;16.40;67.20;;;;;;4791142;29;20527;-82
2021/12/12 11:24:57;;;;;;;2.53;1.00;;;16.40;67.10;;;;;;4792549;29;20091;-79
2021/12/12 11:27:50;;;;;;;5.78;0.88;;;16.50;67.00;;;;;;4792066;29;20059;-80
2021/12/12 11:30:25;;;;;;;2.90;0.88;;;16.40;66.80;;;;;;4792025;29;20115;-78
2021/12/12 11:32:55;;;;;;;4.22;1.00;;;16.40;67.10;;;;;;4791905;29;20058;-78
2021/12/12 11:35:25;;;;;;;6.45;1.13;;;16.40;67.30;;;;;;4808183;29;20061;-78
2021/12/12 11:38:05;;;;;;;3.03;0.82;;;16.50;67.30;;;;;;4792038;29;20055;-75
2021/12/12 11:40:51;;;;;;;3.72;0.88;;;16.50;67.30;;;;;;4808314;29;20054;-79
2021/12/12 11:44:31;;;;;;;8.45;1.80;;;16.50;66.90;;;;;;4791823;29;20055;-78
2021/12/12 11:47:08;;;;;;;5.78;1.40;;;16.40;67.10;;;;;;4802573;29;20094;-79
2021/12/12 11:49:42;;;;;;;;;;;16.50;67.40;;;;;;4781249;29;20042;-74
2021/12/12 11:52:13;;;;;;;2.28;1.52;;;16.30;67.30;;;;;;4808014;29;19929;-80
2021/12/12 11:55:12;;;;;;;2.47;1.60;;;16.30;67.90;;;;;;4791985;29;20070;-76
2021/12/12 11:58:19;;;;;;;4.25;1.75;;;16.30;68.50;;;;;;4789083;29;20063;-78
2021/12/12 12:00:52;;;;;;;3.45;2.28;;;16.30;69.50;;;;;;4764146;29;20059;-75
2021/12/12 12:03:27;;;;;;;4.70;1.40;;;16.30;70.70;;;;;;4807991;29;20419;-76
2021/12/12 12:06:30;;;;;;;2.30;1.10;;;16.30;70.90;;;;;;4806654;29;20436;-76
2021/12/12 12:09:33;;;;;;;3.35;2.00;;;16.30;70.50;;;;;;4807869;29;20043;-78
2021/12/12 12:12:34;;;;;;;3.38;1.42;;;16.30;70.80;;;;;;4809410;29;20058;-78
2021/12/12 12:15:25;;;;;;;6.57;1.85;;;16.20;70.40;;;;;;4795313;29;20063;-78
2021/12/12 12:18:24;;;;;;;3.50;1.38;;;16.20;70.40;;;;;;4783026;29;20498;-80
2021/12/12 12:21:29;;;;;;;3.20;1.20;;;16.10;70.70;;;;;;4811113;29;20046;-80
2021/12/12 12:24:13;;;;;;;2.85;1.38;;;16.10;70.40;;;;;;4809117;29;20054;-76
2021/12/12 12:26:51;;;;;;;2.90;1.58;;;16.10;70.40;;;;;;4809947;29;20062;-77
2021/12/12 12:29:22;;;;;;;2.97;1.00;;;16.10;70.10;;;;;;4811010;29;20049;-77
2021/12/12 12:32:47;;;;;;;3.92;1.17;;;16.00;70.20;;;;;;4810532;29;20055;-76
2021/12/12 12:35:33;;;;;;;6.70;1.60;;;16.00;70.40;;;;;;4795243;29;20131;-77
2021/12/12 12:38:39;;;;;;;4.65;1.70;;;16.00;70.70;;;;;;4793603;29;20471;-81
2021/12/12 12:41:41;;;;;;;5.25;1.65;;;16.00;71.10;;;;;;4810659;29;20047;-79
2021/12/12 12:44:44;;;;;;;3.15;1.63;;;16.00;72.90;;;;;;4810937;29;20055;-79
2021/12/12 12:47:41;;;;;;;5.13;1.27;;;15.90;73.30;;;;;;4795107;29;20061;-77
2021/12/12 12:50:45;;;;;;;8.45;1.30;;;15.90;73.40;;;;;;4809975;29;20366;-78
2021/12/12 12:53:32;;;;;;;6.63;1.13;;;16.00;73.80;;;;;;4762465;29;20104;-78
2021/12/12 12:56:20;;;;;;;9.07;1.10;;;16.10;73.80;;;;;;4780427;29;20058;-78
2021/12/12 12:59:04;;;;;;;8.02;0.90;;;16.30;73.70;;;;;;4794957;29;20435;-78
2021/12/12 13:01:32;;;;;;;3.95;1.00;;;16.40;73.20;;;;;;4794658;29;20088;-75
2021/12/12 13:04:22;;;;;;;8.23;1.25;;;16.50;72.80;;;;;;4810338;29;20050;-79
2021/12/12 13:07:01;;;;;;;4.95;1.05;;;16.70;72.90;;;;;;4809801;29;20084;-80
2021/12/12 13:09:30;;;;;;;4.75;0.80;;;16.70;72.50;;;;;;4795172;29;20051;-79
2021/12/12 13:12:02;;;;;;;5.10;1.10;;;16.70;72.20;;;;;;4794869;29;20047;-80
2021/12/12 13:14:57;;;;;;;5.72;0.68;;;16.70;72.30;;;;;;4794209;29;20471;-80
2021/12/12 13:17:49;;;;;;;7.35;1.20;;;16.60;72.20;;;;;;4791483;30;20484;-81
2021/12/12 13:20:22;;;;;;;6.97;0.88;;;16.50;72.00;;;;;;4792222;29;20124;-80
2021/12/12 13:22:52;;;;;;;3.13;0.70;;;16.50;71.70;;;;;;4790180;29;20151;-82
2021/12/12 13:25:34;;;;;;;4.82;0.80;;;16.50;71.90;;;;;;4793544;29;20053;-80
2021/12/12 13:28:56;;;;;;;8.68;1.00;;;16.50;72.70;;;;;;4793882;29;20047;-80
2021/12/12 13:31:39;;;;;;;10.68;0.95;;;16.40;72.10;;;;;;4742481;30;20048;-79
2021/12/12 13:34:36;;;;;;;9.23;1.38;;;16.40;72.30;;;;;;4777523;29;20467;-79
2021/12/12 13:37:27;;;;;;;8.20;1.83;;;16.40;72.30;;;;;;4809210;29;20050;-79
2021/12/12 13:40:01;;;;;;;9.63;1.80;;;16.40;72.30;;;;;;4793536;29;20068;-80
2021/12/12 13:42:56;;;;;;;10.05;2.00;;;16.30;72.00;;;;;;4794095;29;20058;-80
2021/12/12 13:45:37;;;;;;;8.32;1.83;;;16.30;71.60;;;;;;4810149;29;20063;-77
2021/12/12 13:48:20;;;;;;;6.60;1.60;;;16.30;71.60;;;;;;4793798;29;20051;-75
2021/12/12 13:51:05;;;;;;;5.75;1.65;;;16.20;71.30;;;;;;4794110;29;20050;-76